createdAt,value
2019-04-25T00:00:07.702Z,0.00
2019-04-25T00:01:07.724Z,0.00
2019-04-25T00:02:07.744Z,0.00
2019-04-25T00:03:07.769Z,0.00
2019-04-25T00:04:07.785Z,0.00
2019-04-25T00:05:07.823Z,0.00
2019-04-25T00:06:07.896Z,0.00
2019-04-25T00:07:07.892Z,0.00
2019-04-25T00:08:07.901Z,0.00
2019-04-25T00:09:07.952Z,0.00
2019-04-25T00:10:07.946Z,0.00
2019-04-25T00:11:07.954Z,0.00
2019-04-25T00:12:07.955Z,0.00
2019-04-25T00:13:07.976Z,0.00
2019-04-25T00:14:07.993Z,0.00
2019-04-25T00:15:08.014Z,0.00
2019-04-25T00:16:08.036Z,0.00
2019-04-25T00:17:08.058Z,0.00
2019-04-25T00:18:08.075Z,0.00
2019-04-25T00:19:08.097Z,0.00
2019-04-25T00:20:08.128Z,0.00
2019-04-25T00:21:08.138Z,0.00
2019-04-25T00:22:08.159Z,0.00
2019-04-25T00:23:08.181Z,0.00
2019-04-25T00:24:08.200Z,0.00
2019-04-25T00:25:15.900Z,0.00
2019-04-25T00:26:08.242Z,0.00
2019-04-25T00:27:08.264Z,0.00
2019-04-25T00:28:08.282Z,0.00
2019-04-25T00:29:08.306Z,0.00
2019-04-25T00:30:08.322Z,0.00
2019-04-25T00:31:08.344Z,0.00
2019-04-25T00:32:08.367Z,0.00
2019-04-25T00:33:08.386Z,0.00
2019-04-25T00:34:08.406Z,0.00
2019-04-25T00:35:08.426Z,0.00
2019-04-25T00:36:08.445Z,0.00
2019-04-25T00:37:08.467Z,0.00
2019-04-25T00:38:08.487Z,0.00
2019-04-25T00:39:08.508Z,0.00
2019-04-25T00:40:08.527Z,0.00
2019-04-25T00:41:08.547Z,0.00
2019-04-25T00:42:08.566Z,0.00
2019-04-25T00:43:08.590Z,0.00
2019-04-25T00:44:08.607Z,0.00
2019-04-25T00:45:08.632Z,0.00
2019-04-25T00:46:08.650Z,0.00
2019-04-25T00:47:08.669Z,0.00
2019-04-25T00:48:08.686Z,0.00
2019-04-25T00:49:08.710Z,0.00
2019-04-25T00:50:08.732Z,0.00
2019-04-25T00:51:08.750Z,0.00
2019-04-25T00:52:08.769Z,0.00
2019-04-25T00:53:08.790Z,0.00
2019-04-25T00:54:08.810Z,0.00
2019-04-25T00:55:08.829Z,0.00
2019-04-25T00:56:08.850Z,0.00
2019-04-25T00:57:08.873Z,0.00
2019-04-25T00:58:08.890Z,0.00
2019-04-25T00:59:08.911Z,0.00
2019-04-25T01:00:08.931Z,0.00
2019-04-25T01:01:08.951Z,0.00
2019-04-25T01:02:08.971Z,0.00
2019-04-25T01:03:08.989Z,0.00
2019-04-25T01:04:09.011Z,0.00
2019-04-25T01:05:09.030Z,0.00
2019-04-25T01:06:09.052Z,0.00
2019-04-25T01:07:09.071Z,0.00
2019-04-25T01:08:09.090Z,0.00
2019-04-25T01:09:09.109Z,0.00
2019-04-25T01:10:09.131Z,0.00
2019-04-25T01:11:09.149Z,0.00
2019-04-25T01:12:09.170Z,0.00
2019-04-25T01:13:09.191Z,0.00
2019-04-25T01:14:09.210Z,0.00
2019-04-25T01:15:09.231Z,0.00
2019-04-25T01:16:09.250Z,0.00
2019-04-25T01:17:09.270Z,0.00
2019-04-25T01:18:09.290Z,0.00
2019-04-25T01:19:09.310Z,0.00
2019-04-25T01:20:09.330Z,0.00
2019-04-25T01:21:09.351Z,0.00
2019-04-25T01:22:09.371Z,0.00
2019-04-25T01:23:09.392Z,0.00
2019-04-25T01:24:09.411Z,0.00
2019-04-25T01:25:09.429Z,0.00
2019-04-25T01:26:09.450Z,0.00
2019-04-25T01:27:09.470Z,0.00
2019-04-25T01:28:09.492Z,0.00
2019-04-25T01:29:09.508Z,0.00
2019-04-25T01:30:09.526Z,0.00
2019-04-25T01:31:09.552Z,0.00
2019-04-25T01:32:09.567Z,0.00
2019-04-25T01:33:09.587Z,0.00
2019-04-25T01:34:09.606Z,0.00
2019-04-25T01:35:09.627Z,0.00
2019-04-25T01:36:09.648Z,0.00
2019-04-25T01:37:09.673Z,0.00
2019-04-25T01:38:09.691Z,0.00
2019-04-25T01:39:09.771Z,0.00
2019-04-25T01:40:09.777Z,0.00
2019-04-25T01:41:09.781Z,0.00
2019-04-25T01:42:09.840Z,0.00
2019-04-25T01:43:09.852Z,0.00
2019-04-25T01:44:09.830Z,0.00
2019-04-25T01:45:09.829Z,0.00
2019-04-25T01:46:09.843Z,0.00
2019-04-25T01:47:09.865Z,0.00
2019-04-25T01:48:09.884Z,0.00
2019-04-25T01:49:09.902Z,0.00
2019-04-25T01:50:09.924Z,0.00
2019-04-25T01:51:09.947Z,0.00
2019-04-25T01:52:09.964Z,0.00
2019-04-25T01:53:09.982Z,0.00
2019-04-25T01:54:10.003Z,0.00
2019-04-25T01:55:10.022Z,0.00
2019-04-25T01:56:10.060Z,0.00
2019-04-25T01:57:10.062Z,0.00
2019-04-25T01:58:10.080Z,0.00
2019-04-25T01:59:10.100Z,0.00
2019-04-25T02:00:10.120Z,0.00
2019-04-25T02:01:10.145Z,0.00
2019-04-25T02:02:10.182Z,0.00
2019-04-25T02:03:10.180Z,0.00
2019-04-25T02:04:10.200Z,0.00
2019-04-25T02:05:10.223Z,0.00
2019-04-25T02:06:10.241Z,0.00
2019-04-25T02:07:10.262Z,0.00
2019-04-25T02:08:10.281Z,0.00
2019-04-25T02:09:10.301Z,0.00
2019-04-25T02:10:10.324Z,0.00
2019-04-25T02:11:10.341Z,0.00
2019-04-25T02:12:10.364Z,0.00
2019-04-25T02:13:10.380Z,0.00
2019-04-25T02:14:10.404Z,0.00
2019-04-25T02:15:10.422Z,0.00
2019-04-25T02:16:10.439Z,0.00
2019-04-25T02:17:10.461Z,0.00
2019-04-25T02:18:10.480Z,0.00
2019-04-25T02:19:10.501Z,0.00
2019-04-25T02:20:10.520Z,0.00
2019-04-25T02:21:10.540Z,0.00
2019-04-25T02:22:10.561Z,0.00
2019-04-25T02:23:10.579Z,0.00
2019-04-25T02:24:10.600Z,0.00
2019-04-25T02:25:10.621Z,0.00
2019-04-25T02:26:16.023Z,0.00
2019-04-25T02:27:10.660Z,0.00
2019-04-25T02:28:10.682Z,0.00
2019-04-25T02:29:10.701Z,0.00
2019-04-25T02:30:10.723Z,0.00
2019-04-25T02:31:10.740Z,0.00
2019-04-25T02:32:10.760Z,0.00
2019-04-25T02:33:10.782Z,0.00
2019-04-25T02:34:10.803Z,0.00
2019-04-25T02:35:10.837Z,0.00
2019-04-25T02:36:10.841Z,0.00
2019-04-25T02:37:10.886Z,0.00
2019-04-25T02:38:10.882Z,0.00
2019-04-25T02:39:10.902Z,0.00
2019-04-25T02:40:10.921Z,0.00
2019-04-25T02:41:10.941Z,0.00
2019-04-25T02:42:10.963Z,0.00
2019-04-25T02:43:10.980Z,0.00
2019-04-25T02:44:11.001Z,0.00
2019-04-25T02:45:11.021Z,0.00
2019-04-25T02:46:11.041Z,0.00
2019-04-25T02:47:11.058Z,0.00
2019-04-25T02:48:11.082Z,0.00
2019-04-25T02:49:19.734Z,0.00
2019-04-25T02:50:11.119Z,0.00
2019-04-25T02:51:11.139Z,0.00
2019-04-25T02:52:13.146Z,0.00
2019-04-25T02:53:11.180Z,0.00
2019-04-25T02:54:11.201Z,0.00
2019-04-25T02:55:15.999Z,0.00
2019-04-25T02:56:27.377Z,0.00
2019-04-25T02:57:11.259Z,0.00
2019-04-25T02:58:11.280Z,0.00
2019-04-25T02:59:11.307Z,0.00
2019-04-25T03:00:11.316Z,0.00
2019-04-25T03:01:19.389Z,0.00
2019-04-25T03:02:11.359Z,0.00
2019-04-25T03:03:11.395Z,0.00
2019-04-25T03:04:11.533Z,0.00
2019-04-25T03:05:11.453Z,0.00
2019-04-25T03:06:11.442Z,0.00
2019-04-25T03:07:11.623Z,0.00
2019-04-25T03:08:11.502Z,0.00
2019-04-25T03:09:11.500Z,0.00
2019-04-25T03:10:11.604Z,0.00
2019-04-25T03:11:11.557Z,0.00
2019-04-25T03:12:25.391Z,0.00
2019-04-25T03:13:12.563Z,0.00
2019-04-25T03:14:11.656Z,0.00
2019-04-25T03:15:11.661Z,0.00
2019-04-25T03:16:13.757Z,0.00
2019-04-25T03:17:14.003Z,0.00
2019-04-25T03:18:14.572Z,4.00
2019-04-25T03:19:13.974Z,4.00
2019-04-25T03:20:12.672Z,4.00
2019-04-25T03:21:14.155Z,4.00
2019-04-25T03:22:11.932Z,0.00
2019-04-25T03:23:14.218Z,4.00
2019-04-25T03:24:13.937Z,4.00
2019-04-25T03:25:16.475Z,4.00
2019-04-25T03:26:13.389Z,8.00
2019-04-25T03:27:11.858Z,4.00
2019-04-25T03:28:13.483Z,8.00
2019-04-25T03:29:13.530Z,8.00
2019-04-25T03:30:14.074Z,8.00
2019-04-25T03:31:18.630Z,12.00
2019-04-25T03:32:14.314Z,16.00
2019-04-25T03:33:16.113Z,20.00
2019-04-25T03:34:16.063Z,24.00
2019-04-25T03:35:13.378Z,28.00
2019-04-25T03:36:13.699Z,36.00
2019-04-25T03:37:13.626Z,44.00
2019-04-25T03:38:12.724Z,48.00
2019-04-25T03:39:14.404Z,56.00
2019-04-25T03:40:13.840Z,68.00
2019-04-25T03:41:13.205Z,76.00
2019-04-25T03:42:12.152Z,88.00
2019-04-25T03:43:12.177Z,96.00
2019-04-25T03:44:13.840Z,112.00
2019-04-25T03:45:13.764Z,124.00
2019-04-25T03:46:14.117Z,140.00
2019-04-25T03:47:13.444Z,156.00
2019-04-25T03:48:13.882Z,176.00
2019-04-25T03:49:13.526Z,196.00
2019-04-25T03:50:13.829Z,216.00
2019-04-25T03:51:14.227Z,232.00
2019-04-25T03:52:14.086Z,252.00
2019-04-25T03:53:13.618Z,268.00
2019-04-25T03:54:14.097Z,288.00
2019-04-25T03:55:12.464Z,308.00
2019-04-25T03:56:12.966Z,328.00
2019-04-25T03:57:14.475Z,344.00
2019-04-25T03:58:13.117Z,364.00
2019-04-25T03:59:14.225Z,376.00
2019-04-25T04:00:14.505Z,400.00
2019-04-25T04:01:13.245Z,424.00
2019-04-25T04:02:13.533Z,444.00
2019-04-25T04:03:14.233Z,464.00
2019-04-25T04:04:14.368Z,488.00
2019-04-25T04:05:13.900Z,508.00
2019-04-25T04:06:14.194Z,524.00
2019-04-25T04:07:14.303Z,544.00
2019-04-25T04:08:14.479Z,560.00
2019-04-25T04:09:13.917Z,576.00
2019-04-25T04:10:14.214Z,580.00
2019-04-25T04:11:14.159Z,588.00
2019-04-25T04:12:14.482Z,600.00
2019-04-25T04:13:14.191Z,624.00
2019-04-25T04:14:14.499Z,648.00
2019-04-25T04:15:14.396Z,680.00
2019-04-25T04:16:14.295Z,712.00
2019-04-25T04:17:14.432Z,748.00
2019-04-25T04:18:16.282Z,788.00
2019-04-25T04:19:14.419Z,832.00
2019-04-25T04:20:14.705Z,876.00
2019-04-25T04:21:13.583Z,924.00
2019-04-25T04:22:15.023Z,972.00
2019-04-25T04:23:13.498Z,1020.00
2019-04-25T04:24:14.124Z,1068.00
2019-04-25T04:25:13.876Z,1100.00
2019-04-25T04:26:13.673Z,1112.00
2019-04-25T04:27:14.490Z,1132.00
2019-04-25T04:28:14.072Z,1156.00
2019-04-25T04:29:14.121Z,1184.00
2019-04-25T04:30:14.476Z,1208.00
2019-04-25T04:31:14.340Z,1248.00
2019-04-25T04:32:14.386Z,1288.00
2019-04-25T04:33:25.991Z,1320.00
2019-04-25T04:34:14.689Z,1324.00
2019-04-25T04:35:14.444Z,1328.00
2019-04-25T04:36:15.032Z,1344.00
2019-04-25T04:37:14.629Z,1356.00
2019-04-25T04:38:14.425Z,1376.00
2019-04-25T04:39:14.206Z,1416.00
2019-04-25T04:40:15.824Z,1472.00
2019-04-25T04:41:14.230Z,1552.00
2019-04-25T04:42:13.990Z,1616.00
2019-04-25T04:43:15.283Z,1664.00
2019-04-25T04:44:14.327Z,1708.00
2019-04-25T04:45:14.317Z,1752.00
2019-04-25T04:46:14.168Z,1800.00
2019-04-25T04:47:14.420Z,1880.00
2019-04-25T04:48:14.511Z,1952.00
2019-04-25T04:49:14.456Z,2028.00
2019-04-25T04:50:14.498Z,2140.00
2019-04-25T04:51:14.875Z,2256.00
2019-04-25T04:52:14.700Z,2364.00
2019-04-25T04:53:15.716Z,2480.00
2019-04-25T04:54:14.366Z,2600.00
2019-04-25T04:55:15.761Z,2664.00
2019-04-25T04:56:15.056Z,2716.00
2019-04-25T04:57:22.105Z,2740.00
2019-04-25T04:58:15.038Z,2816.00
2019-04-25T04:59:14.640Z,2840.00
2019-04-25T05:00:14.590Z,2900.00
2019-04-25T05:01:14.777Z,3032.00
2019-04-25T05:02:15.789Z,3164.00
2019-04-25T05:03:14.889Z,3320.00
2019-04-25T05:04:14.937Z,3452.00
2019-04-25T05:05:14.565Z,3552.00
2019-04-25T05:06:15.012Z,3592.00
2019-04-25T05:07:14.973Z,3604.00
2019-04-25T05:08:14.991Z,3512.00
2019-04-25T05:09:15.200Z,3412.00
2019-04-25T05:10:16.522Z,3288.00
2019-04-25T05:11:15.441Z,3232.00
2019-04-25T05:12:15.251Z,3152.00
2019-04-25T05:13:15.248Z,3084.00
2019-04-25T05:14:14.905Z,3060.00
2019-04-25T05:15:15.322Z,3080.00
2019-04-25T05:16:15.066Z,3172.00
2019-04-25T05:17:15.166Z,3348.00
2019-04-25T05:18:15.624Z,3640.00
2019-04-25T05:19:15.477Z,4032.00
2019-04-25T05:20:16.015Z,4520.00
2019-04-25T05:21:15.694Z,4960.00
2019-04-25T05:22:14.919Z,5316.00
2019-04-25T05:23:15.086Z,5580.00
2019-04-25T05:24:16.008Z,5688.00
2019-04-25T05:25:16.260Z,5756.00
2019-04-25T05:26:15.929Z,5724.00
2019-04-25T05:27:15.380Z,5664.00
2019-04-25T05:28:16.170Z,5532.00
2019-04-25T05:29:17.478Z,5496.00
2019-04-25T05:30:15.716Z,5408.00
2019-04-25T05:31:15.749Z,5404.00
2019-04-25T05:32:15.776Z,5460.00
2019-04-25T05:33:17.591Z,5664.00
2019-04-25T05:34:15.722Z,5968.00
2019-04-25T05:35:15.016Z,6424.00
2019-04-25T05:36:15.488Z,6908.00
2019-04-25T05:37:15.151Z,7348.00
2019-04-25T05:38:15.096Z,7716.00
2019-04-25T05:39:16.711Z,8376.00
2019-04-25T05:40:15.816Z,9036.00
2019-04-25T05:41:15.654Z,9828.00
2019-04-25T05:42:16.277Z,10200.00
2019-04-25T05:43:15.085Z,10392.00
2019-04-25T05:44:15.705Z,10872.00
2019-04-25T05:45:16.030Z,10840.00
2019-04-25T05:46:15.293Z,10984.00
2019-04-25T05:47:15.898Z,11044.00
2019-04-25T05:48:15.964Z,11040.00
2019-04-25T05:49:15.492Z,11232.00
2019-04-25T05:50:15.639Z,12280.00
2019-04-25T05:51:15.778Z,13348.00
2019-04-25T05:52:15.970Z,11920.00
2019-04-25T05:53:16.164Z,11732.00
2019-04-25T05:54:14.740Z,11140.00
2019-04-25T05:55:17.542Z,11076.00
2019-04-25T05:56:14.780Z,10896.00
2019-04-25T05:57:14.800Z,11876.00
2019-04-25T05:58:14.821Z,13328.00
2019-04-25T05:59:14.841Z,12476.00
2019-04-25T06:00:15.149Z,13048.00
2019-04-25T06:01:14.887Z,14148.00
2019-04-25T06:02:14.905Z,14092.00
2019-04-25T06:03:14.926Z,14532.00
2019-04-25T06:04:14.945Z,14972.00
2019-04-25T06:05:14.967Z,12872.00
2019-04-25T06:06:14.990Z,13088.00
2019-04-25T06:07:15.008Z,12928.00
2019-04-25T06:08:15.033Z,12600.00
2019-04-25T06:09:15.052Z,12500.00
2019-04-25T06:10:15.080Z,11816.00
2019-04-25T06:11:15.094Z,11736.00
2019-04-25T06:12:15.115Z,11468.00
2019-04-25T06:13:15.138Z,11900.00
2019-04-25T06:14:15.157Z,13460.00
2019-04-25T06:15:15.179Z,12708.00
2019-04-25T06:16:15.200Z,13304.00
2019-04-25T06:17:15.244Z,12712.00
2019-04-25T06:18:15.243Z,12760.00
2019-04-25T06:19:18.525Z,12764.00
2019-04-25T06:20:15.285Z,13468.00
2019-04-25T06:21:15.308Z,14004.00
2019-04-25T06:22:15.329Z,14660.00
2019-04-25T06:23:15.415Z,24672.00
2019-04-25T06:24:15.425Z,16552.00
2019-04-25T06:25:16.367Z,14576.00
2019-04-25T06:26:23.049Z,14820.00
2019-04-25T06:27:15.491Z,15800.00
2019-04-25T06:28:15.485Z,19808.00
2019-04-25T06:29:15.481Z,15068.00
2019-04-25T06:30:15.789Z,39584.00
2019-04-25T06:31:15.524Z,22976.00
2019-04-25T06:32:15.544Z,19872.00
2019-04-25T06:33:15.630Z,29408.00
2019-04-25T06:34:15.587Z,52320.00
2019-04-25T06:35:15.611Z,51520.00
2019-04-25T06:36:15.634Z,52768.00
2019-04-25T06:37:15.656Z,26528.00
2019-04-25T06:38:15.678Z,45312.00
2019-04-25T06:39:15.701Z,41472.00
2019-04-25T06:40:15.724Z,40000.00
2019-04-25T06:41:15.747Z,39008.00
2019-04-25T06:42:15.771Z,36768.00
2019-04-25T06:43:15.791Z,37152.00
2019-04-25T06:44:15.815Z,22176.00
2019-04-25T06:45:15.846Z,27072.00
2019-04-25T06:46:15.858Z,32896.00
2019-04-25T06:47:15.892Z,25280.00
2019-04-25T06:48:15.908Z,34208.00
2019-04-25T06:49:15.930Z,15856.00
2019-04-25T06:50:15.954Z,37760.00
2019-04-25T06:51:15.988Z,28160.00
2019-04-25T06:52:16.002Z,40640.00
2019-04-25T06:53:16.025Z,21824.00
2019-04-25T06:54:16.050Z,23552.00
2019-04-25T06:55:16.077Z,18656.00
2019-04-25T06:56:16.100Z,23200.00
2019-04-25T06:57:16.126Z,27680.00
2019-04-25T06:58:16.151Z,21184.00
2019-04-25T06:59:16.173Z,45632.00
2019-04-25T07:00:16.194Z,32448.00
2019-04-25T07:01:16.221Z,24320.00
2019-04-25T07:02:16.241Z,41440.00
2019-04-25T07:03:16.268Z,54208.00
2019-04-25T07:04:16.290Z,54144.00
2019-04-25T07:05:26.428Z,54432.00
2019-04-25T07:06:16.368Z,54400.00
2019-04-25T07:07:16.369Z,55424.00
2019-04-25T07:08:16.388Z,54400.00
2019-04-25T07:09:16.415Z,54624.00
2019-04-25T07:10:16.444Z,56960.00
2019-04-25T07:11:16.465Z,58176.00
2019-04-25T07:12:16.494Z,58752.00
2019-04-25T07:13:16.518Z,19264.00
2019-04-25T07:14:16.546Z,15768.00
2019-04-25T07:15:16.570Z,19712.00
2019-04-25T07:16:16.595Z,55008.00
2019-04-25T07:17:16.622Z,52384.00
2019-04-25T07:18:16.649Z,53216.00
2019-04-25T07:19:17.624Z,53088.00
2019-04-25T07:20:16.699Z,54272.00
2019-04-25T07:21:16.725Z,55424.00
2019-04-25T07:22:16.753Z,54272.00
2019-04-25T07:23:16.784Z,53376.00
2019-04-25T07:24:17.566Z,52864.00
2019-04-25T07:25:16.832Z,50912.00
2019-04-25T07:26:16.862Z,51520.00
2019-04-25T07:27:16.887Z,57440.00
2019-04-25T07:28:24.118Z,60864.00
2019-04-25T07:29:16.940Z,61888.00
2019-04-25T07:30:26.862Z,60896.00
2019-04-25T07:31:16.994Z,58080.00
2019-04-25T07:32:17.021Z,57504.00
2019-04-25T07:33:17.048Z,61248.00
2019-04-25T07:34:17.075Z,62688.00
2019-04-25T07:35:17.101Z,59584.00
2019-04-25T07:36:17.131Z,57792.00
2019-04-25T07:37:17.157Z,60160.00
2019-04-25T07:38:17.184Z,63072.00
2019-04-25T07:39:17.231Z,61440.00
2019-04-25T07:40:17.244Z,60640.00
2019-04-25T07:41:17.351Z,60128.00
2019-04-25T07:42:17.337Z,62016.00
2019-04-25T07:43:17.377Z,62912.00
2019-04-25T07:44:17.519Z,61088.00
2019-04-25T07:45:17.430Z,60992.00
2019-04-25T07:46:17.406Z,60000.00
2019-04-25T07:47:17.434Z,60224.00
2019-04-25T07:48:17.469Z,61440.00
2019-04-25T07:49:17.491Z,62176.00
2019-04-25T07:50:17.518Z,63008.00
2019-04-25T07:51:17.547Z,62048.00
2019-04-25T07:52:17.575Z,60768.00
2019-04-25T07:53:17.605Z,63008.00
2019-04-25T07:54:17.635Z,64928.00
2019-04-25T07:55:17.661Z,65312.00
2019-04-25T07:56:17.690Z,67168.00
2019-04-25T07:57:17.718Z,65664.00
2019-04-25T07:58:17.749Z,65760.00
2019-04-25T07:59:17.776Z,66624.00
2019-04-25T08:00:17.805Z,66240.00
2019-04-25T08:01:17.835Z,64992.00
2019-04-25T08:02:17.864Z,66240.00
2019-04-25T08:03:17.960Z,64896.00
2019-04-25T08:04:17.922Z,66240.00
2019-04-25T08:05:17.950Z,47680.00
2019-04-25T08:06:17.982Z,15384.00
2019-04-25T08:07:18.009Z,5228.00
2019-04-25T08:08:18.039Z,5068.00
2019-04-25T08:09:18.067Z,5044.00
2019-04-25T08:10:18.100Z,5036.00
2019-04-25T08:11:18.126Z,5040.00
2019-04-25T08:12:18.152Z,5060.00
2019-04-25T08:13:18.179Z,5076.00
2019-04-25T08:14:18.206Z,5112.00
2019-04-25T08:15:18.245Z,5120.00
2019-04-25T08:16:18.261Z,5136.00
2019-04-25T08:17:18.289Z,5148.00
2019-04-25T08:18:18.315Z,5176.00
2019-04-25T08:19:18.340Z,5216.00
2019-04-25T08:20:18.368Z,5244.00
2019-04-25T08:21:18.395Z,5320.00
2019-04-25T08:22:18.422Z,5336.00
2019-04-25T08:23:18.446Z,5344.00
2019-04-25T08:24:18.471Z,5340.00
2019-04-25T08:25:18.499Z,5260.00
2019-04-25T08:26:18.523Z,5396.00
2019-04-25T08:28:18.573Z,5492.00
2019-04-25T08:29:18.599Z,5776.00
2019-04-25T08:30:18.628Z,5800.00
2019-04-25T08:31:18.652Z,6116.00
2019-04-25T08:32:18.677Z,6364.00
2019-04-25T08:33:18.697Z,6352.00
2019-04-25T08:34:18.722Z,6348.00
2019-04-25T08:35:18.744Z,6500.00
2019-04-25T08:36:18.771Z,6484.00
2019-04-25T08:37:21.050Z,6480.00
2019-04-25T08:38:18.820Z,6408.00
2019-04-25T08:39:18.846Z,6368.00
2019-04-25T08:40:18.869Z,6412.00
2019-04-25T08:41:21.476Z,6056.00
2019-04-25T08:42:18.915Z,5920.00
2019-04-25T08:43:18.940Z,6084.00
2019-04-25T08:44:18.963Z,6288.00
2019-04-25T08:45:18.989Z,6520.00
2019-04-25T08:46:19.013Z,6836.00
2019-04-25T08:47:19.038Z,6752.00
2019-04-25T08:48:19.061Z,6864.00
2019-04-25T08:49:19.083Z,6936.00
2019-04-25T08:50:28.775Z,6804.00
2019-04-25T08:51:19.129Z,6652.00
2019-04-25T08:52:19.169Z,6788.00
2019-04-25T08:53:19.240Z,6820.00
2019-04-25T08:54:19.239Z,6672.00
2019-04-25T08:55:19.295Z,6488.00
2019-04-25T08:56:19.302Z,6316.00
2019-04-25T08:57:19.297Z,6140.00
2019-04-25T08:58:19.313Z,5992.00
2019-04-25T08:59:26.843Z,5896.00
2019-04-25T09:00:19.341Z,5840.00
2019-04-25T09:01:19.367Z,5772.00
2019-04-25T09:02:19.385Z,5740.00
2019-04-25T09:03:19.410Z,5748.00
2019-04-25T09:04:19.438Z,5768.00
2019-04-25T09:05:19.459Z,5832.00
2019-04-25T09:06:19.483Z,5916.00
2019-04-25T09:07:19.504Z,6032.00
2019-04-25T09:08:19.526Z,6144.00
2019-04-25T09:09:19.552Z,6264.00
2019-04-25T09:10:19.573Z,6468.00
2019-04-25T09:11:19.598Z,6604.00
2019-04-25T09:12:19.621Z,6788.00
2019-04-25T09:13:19.642Z,6976.00
2019-04-25T09:14:19.666Z,7144.00
2019-04-25T09:15:19.690Z,7348.00
2019-04-25T09:16:19.711Z,7540.00
2019-04-25T09:17:19.733Z,7640.00
2019-04-25T09:18:19.759Z,7676.00
2019-04-25T09:19:19.783Z,7724.00
2019-04-25T09:20:19.804Z,7800.00
2019-04-25T09:21:19.830Z,7904.00
2019-04-25T09:22:19.851Z,8044.00
2019-04-25T09:23:19.876Z,8276.00
2019-04-25T09:24:19.899Z,8492.00
2019-04-25T09:25:19.925Z,8684.00
2019-04-25T09:26:19.945Z,9032.00
2019-04-25T09:27:19.970Z,9412.00
2019-04-25T09:28:19.992Z,9820.00
2019-04-25T09:29:20.136Z,10120.00
2019-04-25T09:30:20.040Z,10328.00
2019-04-25T09:31:20.064Z,10276.00
2019-04-25T09:32:20.095Z,10380.00
2019-04-25T09:33:20.109Z,10776.00
2019-04-25T09:34:20.133Z,11220.00
2019-04-25T09:35:20.262Z,11780.00
2019-04-25T09:36:20.180Z,11796.00
2019-04-25T09:37:20.209Z,12020.00
2019-04-25T09:38:20.235Z,12076.00
2019-04-25T09:39:20.255Z,11908.00
2019-04-25T09:40:20.276Z,11408.00
2019-04-25T09:41:20.304Z,10960.00
2019-04-25T09:42:20.325Z,10576.00
2019-04-25T09:43:20.350Z,10156.00
2019-04-25T09:44:20.373Z,9632.00
2019-04-25T09:45:20.399Z,9016.00
2019-04-25T09:46:20.422Z,8516.00
2019-04-25T09:47:20.447Z,8100.00
2019-04-25T09:48:20.471Z,7708.00
2019-04-25T09:49:20.495Z,7332.00
2019-04-25T09:50:20.521Z,7060.00
2019-04-25T09:51:20.544Z,6848.00
2019-04-25T09:52:20.570Z,6664.00
2019-04-25T09:53:23.560Z,6532.00
2019-04-25T09:54:20.615Z,6484.00
2019-04-25T09:55:20.640Z,6528.00
2019-04-25T09:56:20.665Z,6756.00
2019-04-25T09:57:20.689Z,6860.00
2019-04-25T09:58:20.713Z,6860.00
2019-04-25T09:59:27.198Z,7380.00
2019-04-25T10:00:20.763Z,8240.00
2019-04-25T10:01:20.789Z,10176.00
2019-04-25T10:02:20.810Z,35488.00
2019-04-25T10:03:20.836Z,71424.00
2019-04-25T10:04:22.877Z,79776.00
2019-04-25T10:05:20.886Z,61792.00
2019-04-25T10:06:20.912Z,33728.00
2019-04-25T10:07:20.937Z,28608.00
2019-04-25T10:08:20.960Z,40480.00
2019-04-25T10:09:20.988Z,62080.00
2019-04-25T10:10:21.015Z,75232.00
2019-04-25T10:11:21.040Z,62560.00
2019-04-25T10:12:21.147Z,40416.00
2019-04-25T10:13:21.146Z,30368.00
2019-04-25T10:14:21.141Z,32064.00
2019-04-25T10:15:21.210Z,35872.00
2019-04-25T10:16:21.220Z,27936.00
2019-04-25T10:17:21.204Z,29632.00
2019-04-25T10:18:21.239Z,24672.00
2019-04-25T10:19:21.261Z,22720.00
2019-04-25T10:20:21.293Z,47168.00
2019-04-25T10:21:21.313Z,79424.00
2019-04-25T10:22:21.342Z,93600.00
2019-04-25T10:23:21.370Z,91808.00
2019-04-25T10:24:21.399Z,89440.00
2019-04-25T10:25:21.428Z,85984.00
2019-04-25T10:26:21.459Z,84448.00
2019-04-25T10:27:21.490Z,85792.00
2019-04-25T10:28:23.215Z,86848.00
2019-04-25T10:29:21.553Z,84800.00
2019-04-25T10:30:23.783Z,83168.00
2019-04-25T10:31:21.617Z,83328.00
2019-04-25T10:32:23.646Z,81312.00
2019-04-25T10:33:21.682Z,80128.00
2019-04-25T10:34:21.713Z,76128.00
2019-04-25T10:35:21.748Z,75680.00
2019-04-25T10:36:23.256Z,79168.00
2019-04-25T10:37:21.816Z,79840.00
2019-04-25T10:38:21.848Z,79840.00
2019-04-25T10:39:21.953Z,79392.00
2019-04-25T10:40:23.417Z,76032.00
2019-04-25T10:41:21.957Z,78336.00
2019-04-25T10:42:23.752Z,73248.00
2019-04-25T10:43:23.874Z,77184.00
2019-04-25T10:44:22.063Z,76640.00
2019-04-25T10:45:25.458Z,78048.00
2019-04-25T10:46:22.137Z,76352.00
2019-04-25T10:47:22.175Z,75296.00
2019-04-25T10:48:23.926Z,75648.00
2019-04-25T10:49:23.543Z,77312.00
2019-04-25T10:50:23.721Z,79424.00
2019-04-25T10:51:23.864Z,77120.00
2019-04-25T10:52:23.335Z,74560.00
2019-04-25T10:53:23.468Z,72416.00
2019-04-25T10:54:22.436Z,74528.00
2019-04-25T10:55:23.371Z,75872.00
2019-04-25T10:56:24.164Z,76352.00
2019-04-25T10:57:22.553Z,75648.00
2019-04-25T10:58:22.592Z,76608.00
2019-04-25T10:59:23.619Z,77888.00
2019-04-25T11:00:24.051Z,77856.00
2019-04-25T11:01:24.337Z,77056.00
2019-04-25T11:02:23.607Z,77024.00
2019-04-25T11:03:24.171Z,76992.00
2019-04-25T11:04:22.825Z,78304.00
2019-04-25T11:05:23.958Z,77824.00
2019-04-25T11:06:23.307Z,77632.00
2019-04-25T11:07:23.467Z,77280.00
2019-04-25T11:08:24.374Z,76480.00
2019-04-25T11:09:24.178Z,77760.00
2019-04-25T11:10:23.595Z,80640.00
2019-04-25T11:11:24.106Z,83296.00
2019-04-25T11:12:23.500Z,85600.00
2019-04-25T11:13:23.183Z,82560.00
2019-04-25T11:14:23.895Z,81760.00
2019-04-25T11:15:23.445Z,82240.00
2019-04-25T11:16:24.214Z,83104.00
2019-04-25T11:17:24.245Z,83136.00
2019-04-25T11:18:23.887Z,82976.00
2019-04-25T11:19:23.900Z,83008.00
2019-04-25T11:20:23.466Z,80704.00
2019-04-25T11:21:24.287Z,83744.00
2019-04-25T11:22:23.975Z,83936.00
2019-04-25T11:23:23.590Z,82784.00
2019-04-25T11:24:23.829Z,81856.00
2019-04-25T11:25:24.034Z,81984.00
2019-04-25T11:26:23.711Z,81600.00
2019-04-25T11:27:23.970Z,80480.00
2019-04-25T11:28:23.793Z,80224.00
2019-04-25T11:29:24.076Z,81472.00
2019-04-25T11:30:23.876Z,83424.00
2019-04-25T11:31:23.918Z,82944.00
2019-04-25T11:32:23.964Z,82112.00
2019-04-25T11:33:24.684Z,83264.00
2019-04-25T11:34:24.043Z,83680.00
2019-04-25T11:35:24.225Z,82112.00
2019-04-25T11:36:24.975Z,81824.00
2019-04-25T11:37:24.164Z,83840.00
2019-04-25T11:38:24.208Z,85760.00
2019-04-25T11:39:24.250Z,86400.00
2019-04-25T11:40:24.291Z,85408.00
2019-04-25T11:41:24.379Z,85344.00
2019-04-25T11:42:24.372Z,86400.00
2019-04-25T11:43:24.415Z,85952.00
2019-04-25T11:44:24.592Z,87712.00
2019-04-25T11:45:24.499Z,86016.00
2019-04-25T11:46:24.539Z,86080.00
2019-04-25T11:47:24.581Z,85984.00
2019-04-25T11:48:24.629Z,84256.00
2019-04-25T11:49:24.678Z,80448.00
2019-04-25T11:50:24.708Z,80896.00
2019-04-25T11:51:24.751Z,82400.00
2019-04-25T11:52:28.121Z,83136.00
2019-04-25T11:53:25.008Z,84064.00
2019-04-25T11:54:24.875Z,84128.00
2019-04-25T11:55:24.923Z,83392.00
2019-04-25T11:56:25.015Z,83200.00
2019-04-25T11:57:25.029Z,84000.00
2019-04-25T11:58:25.104Z,85824.00
2019-04-25T11:59:25.086Z,84736.00
2019-04-25T12:00:25.127Z,84032.00
2019-04-25T12:01:25.169Z,81728.00
2019-04-25T12:02:25.211Z,80352.00
2019-04-25T12:03:25.255Z,81792.00
2019-04-25T12:04:25.296Z,83136.00
2019-04-25T12:05:25.337Z,83584.00
2019-04-25T12:06:25.379Z,83424.00
2019-04-25T12:07:25.423Z,84928.00
2019-04-25T12:08:25.460Z,84512.00
2019-04-25T12:09:25.503Z,83808.00
2019-04-25T12:10:25.547Z,84960.00
2019-04-25T12:11:25.587Z,85536.00
2019-04-25T12:12:25.629Z,81696.00
2019-04-25T12:13:25.673Z,79296.00
2019-04-25T12:14:25.715Z,78720.00
2019-04-25T12:15:25.754Z,78816.00
2019-04-25T12:16:25.797Z,78688.00
2019-04-25T12:17:25.836Z,77376.00
2019-04-25T12:18:25.879Z,76672.00